Finikia — YKRO — position and weather

sailwx.info

Track history (hours):
 
Tides and Currents Weather Stations Pressure Air Temp Water Temp Dewpoint Dewpoint Depression Visibility Wind Speed Wind Dir Waves Ship Positions

Finikia

Last reported at 2014-Oct-30 15:30 UTC. Time now 2014-Oct-31 04:01 UTC.
Position N 46°29' E 030°45'.

Length 138 m; draft 6 m.

Type: Cargo ship. MMSI: 468395000.

Date/timePositionNaut miles runAvg speedWind from/ knotsBaromVisibWave heightAir tempDewpointWater temp
2014-Oct-30 15:30N 46°29' E 030°45'0 0.0
2014-Oct-30 14:24N 46°29' E 030°45'0 0.0
2014-Oct-30 13:30N 46°29' E 030°45'0 0.0
2014-Oct-30 12:30N 46°29' E 030°45'0 0.0
2014-Oct-30 11:18N 46°29' E 030°45'0 0.0
2014-Oct-30 10:30N 46°29' E 030°45'0 0.0
2014-Oct-30 08:18N 46°29' E 030°45'0 0.0
2014-Oct-30 00:18N 46°29' E 030°45'0 0.0
2014-Oct-29 23:30N 46°29' E 030°45'0 0.0
2014-Oct-29 22:30N 46°29' E 030°45'3 0.6
2014-Oct-29 17:14N 46°29' E 030°50'30710.7
2014-Oct-28 12:26N 41°28' E 029°18'9 9.7
2014-Oct-28 11:33N 41°20' E 029°15'26 8.7
2014-Oct-28 08:33N 40°57' E 028°59'10 8.7
2014-Oct-28 07:22N 40°48' E 028°53'8 9.3
2014-Oct-28 06:33N 40°40' E 028°52'2 2.1
2014-Oct-28 05:26N 40°38' E 028°53'2 1.4
2014-Oct-28 04:14N 40°39' E 028°54'1 1.3
2014-Oct-28 03:32N 40°40' E 028°55'1 1.1
2014-Oct-28 02:32N 40°41' E 028°56'1 0.9
2014-Oct-28 01:26N 40°41' E 028°57'2 0.9
2014-Oct-27 23:20N 40°43' E 028°58'1 0.8
2014-Oct-27 21:32N 40°44' E 028°59'3 0.1
2014-Oct-26 17:16N 40°47' E 028°57'1 0.6
2014-Oct-26 16:10N 40°48' E 028°57'1 0.8
2014-Oct-26 15:04N 40°47' E 028°56'2 1.0
2014-Oct-26 13:28N 40°45' E 028°56'1 0.9
2014-Oct-26 12:28N 40°44' E 028°56'1 0.7
2014-Oct-26 11:28N 40°44' E 028°55'1 0.9
2014-Oct-26 10:33N 40°43' E 028°55'6 4.4
2014-Oct-26 09:16N 40°37' E 028°55'1 0.6
2014-Oct-26 08:22N 40°38' E 028°54'1 0.6
2014-Oct-26 07:28N 40°38' E 028°54'1 0.7
2014-Oct-26 06:22N 40°39' E 028°54'1 0.6
2014-Oct-26 05:22N 40°40' E 028°54'1 0.7
2014-Oct-26 04:28N 40°40' E 028°54'1 0.6
2014-Oct-26 03:22N 40°41' E 028°53'1 0.4
2014-Oct-26 02:04N 40°42' E 028°54'3 0.8
2014-Oct-25 22:33N 40°43' E 028°57'1 1.1
2014-Oct-25 21:33N 40°44' E 028°58'1 0.8
2014-Oct-25 20:33N 40°45' E 028°58'1 0.6
2014-Oct-25 19:33N 40°45' E 028°59'0 0.5
2014-Oct-25 18:33N 40°46' E 028°59'0 0.3
2014-Oct-25 17:33N 40°46' E 028°59'0 0.4
2014-Oct-25 16:33N 40°46' E 028°59'1 0.5
2014-Oct-25 15:33N 40°46' E 028°58'1 0.6
2014-Oct-25 14:33N 40°47' E 028°57'1 0.6
2014-Oct-25 13:33N 40°47' E 028°56'0 0.2
2014-Oct-25 12:30N 40°47' E 028°56'0 0.1
2014-Oct-25 11:31N 40°47' E 028°56'0 0.2
2014-Oct-25 10:30N 40°47' E 028°56'1 0.6
2014-Oct-25 09:31N 40°47' E 028°55'1 0.6
2014-Oct-25 08:33N 40°47' E 028°55'1 1.3
2014-Oct-25 07:29N 40°47' E 028°53'232 9.6
2014-Oct-24 07:11N 37°42' E 025°51'812.8
2014-Oct-24 06:32N 37°34' E 025°54'1212.7
2014-Oct-24 05:33N 37°24' E 026°03'1312.9
2014-Oct-24 04:33N 37°15' E 026°15'  
Track history (hours):
 
Tides and Currents Weather Stations Pressure Air Temp Water Temp Dewpoint Dewpoint Depression Visibility Wind Speed Wind Dir Waves Ship Positions

Finikia

Last reported at 2014-Oct-30 15:30 UTC. Time now 2014-Oct-31 04:01 UTC.
Position N 46°29' E 030°45'.

Length 138 m; draft 6 m.

Type: Cargo ship. MMSI: 468395000.

Date/timePositionNaut miles runAvg speedWind from/ knotsBaromVisibWave heightAir tempDewpointWater temp
2014-Oct-30 15:30N 46°29' E 030°45'0 0.0
2014-Oct-30 14:24N 46°29' E 030°45'0 0.0
2014-Oct-30 13:30N 46°29' E 030°45'0 0.0
2014-Oct-30 12:30N 46°29' E 030°45'0 0.0
2014-Oct-30 11:18N 46°29' E 030°45'0 0.0
2014-Oct-30 10:30N 46°29' E 030°45'0 0.0
2014-Oct-30 08:18N 46°29' E 030°45'0 0.0
2014-Oct-30 00:18N 46°29' E 030°45'0 0.0
2014-Oct-29 23:30N 46°29' E 030°45'0 0.0
2014-Oct-29 22:30N 46°29' E 030°45'3 0.6
2014-Oct-29 17:14N 46°29' E 030°50'30710.7
2014-Oct-28 12:26N 41°28' E 029°18'9 9.7
2014-Oct-28 11:33N 41°20' E 029°15'26 8.7
2014-Oct-28 08:33N 40°57' E 028°59'10 8.7
2014-Oct-28 07:22N 40°48' E 028°53'8 9.3
2014-Oct-28 06:33N 40°40' E 028°52'2 2.1
2014-Oct-28 05:26N 40°38' E 028°53'2 1.4
2014-Oct-28 04:14N 40°39' E 028°54'1 1.3
2014-Oct-28 03:32N 40°40' E 028°55'1 1.1
2014-Oct-28 02:32N 40°41' E 028°56'1 0.9
2014-Oct-28 01:26N 40°41' E 028°57'2 0.9
2014-Oct-27 23:20N 40°43' E 028°58'1 0.8
2014-Oct-27 21:32N 40°44' E 028°59'3 0.1
2014-Oct-26 17:16N 40°47' E 028°57'1 0.6
2014-Oct-26 16:10N 40°48' E 028°57'1 0.8
2014-Oct-26 15:04N 40°47' E 028°56'2 1.0
2014-Oct-26 13:28N 40°45' E 028°56'1 0.9
2014-Oct-26 12:28N 40°44' E 028°56'1 0.7
2014-Oct-26 11:28N 40°44' E 028°55'1 0.9
2014-Oct-26 10:33N 40°43' E 028°55'6 4.4
2014-Oct-26 09:16N 40°37' E 028°55'1 0.6
2014-Oct-26 08:22N 40°38' E 028°54'1 0.6
2014-Oct-26 07:28N 40°38' E 028°54'1 0.7
2014-Oct-26 06:22N 40°39' E 028°54'1 0.6
2014-Oct-26 05:22N 40°40' E 028°54'1 0.7
2014-Oct-26 04:28N 40°40' E 028°54'1 0.6
2014-Oct-26 03:22N 40°41' E 028°53'1 0.4
2014-Oct-26 02:04N 40°42' E 028°54'3 0.8
2014-Oct-25 22:33N 40°43' E 028°57'1 1.1
2014-Oct-25 21:33N 40°44' E 028°58'1 0.8
2014-Oct-25 20:33N 40°45' E 028°58'1 0.6
2014-Oct-25 19:33N 40°45' E 028°59'0 0.5
2014-Oct-25 18:33N 40°46' E 028°59'0 0.3
2014-Oct-25 17:33N 40°46' E 028°59'0 0.4
2014-Oct-25 16:33N 40°46' E 028°59'1 0.5
2014-Oct-25 15:33N 40°46' E 028°58'1 0.6
2014-Oct-25 14:33N 40°47' E 028°57'1 0.6
2014-Oct-25 13:33N 40°47' E 028°56'0 0.2
2014-Oct-25 12:30N 40°47' E 028°56'0 0.1
2014-Oct-25 11:31N 40°47' E 028°56'0 0.2
2014-Oct-25 10:30N 40°47' E 028°56'1 0.6
2014-Oct-25 09:31N 40°47' E 028°55'1 0.6
2014-Oct-25 08:33N 40°47' E 028°55'1 1.3
2014-Oct-25 07:29N 40°47' E 028°53'232 9.6
2014-Oct-24 07:11N 37°42' E 025°51'812.8
2014-Oct-24 06:32N 37°34' E 025°54'1212.7
2014-Oct-24 05:33N 37°24' E 026°03'1312.9
2014-Oct-24 04:33N 37°15' E 026°15'  

Dump ship's entire track history